Time;durP1;ratioP1;P1;durP2;ratioP2;P2;SDS_P1;SDS_P2;PMS_P1;PMS_P2;Temp;Humidity;BMP_temperature;BMP_pressure;BME280_temperature;BME280_humidity;BME280_pressure;Samples;Min_cycle;Max_cycle;Signal;HPM_P1;HPM_P2
2023/01/15 00:00:31;;;;;;;1.00;0.68;;;9.70;99.90;;;;;;10351479;28;20023;-66
2023/01/15 00:05:35;;;;;;;3.28;0.60;;;9.70;99.90;;;;;;10354994;28;20106;-67
2023/01/15 00:10:36;;;;;;;1.95;1.10;;;9.70;99.90;;;;;;10339920;28;20033;-66
2023/01/15 00:15:36;;;;;;;1.45;0.60;;;9.70;99.90;;;;;;10356932;28;20041;-66
2023/01/15 00:20:37;;;;;;;3.05;0.73;;;9.70;99.90;;;;;;10356901;28;20307;-67
2023/01/15 00:30:57;;;;;;;1.50;0.70;;;9.60;99.90;;;;;;10354660;28;20045;-66
2023/01/15 00:35:58;;;;;;;4.68;1.20;;;9.60;99.90;;;;;;10355045;28;20113;-66
2023/01/15 00:40:58;;;;;;;4.32;0.70;;;9.60;99.90;;;;;;10354544;28;20388;-66
2023/01/15 00:45:59;;;;;;;3.80;0.70;;;9.70;99.90;;;;;;10351686;28;20120;-66
2023/01/15 00:51:00;;;;;;;2.63;0.70;;;9.60;99.90;;;;;;10360249;28;20026;-66
2023/01/15 00:56:01;;;;;;;2.30;0.65;;;9.60;99.90;;;;;;10353220;28;20029;-66
2023/01/15 01:01:02;;;;;;;2.38;0.77;;;9.60;99.90;;;;;;10355908;28;20010;-66
2023/01/15 01:06:04;;;;;;;0.73;0.45;;;9.60;99.90;;;;;;10351002;28;20033;-66
2023/01/15 01:11:07;;;;;;;1.23;0.68;;;9.60;99.90;;;;;;10355788;28;20206;-66
2023/01/15 01:16:23;;;;;;;3.63;0.75;;;9.60;99.90;;;;;;10354871;28;20160;-65
2023/01/15 01:21:25;;;;;;;1.73;0.65;;;9.60;99.90;;;;;;10360022;28;20156;-66
2023/01/15 01:26:26;;;;;;;5.00;1.08;;;9.60;99.90;;;;;;10345674;28;20088;-66
2023/01/15 01:31:27;;;;;;;3.35;0.63;;;9.50;99.90;;;;;;10337806;28;20433;-65
2023/01/15 01:36:33;;;;;;;1.48;0.60;;;9.60;99.90;;;;;;10358665;28;20208;-67
2023/01/15 01:41:34;;;;;;;1.60;0.50;;;9.60;99.90;;;;;;10359250;28;20025;-66
2023/01/15 01:46:35;;;;;;;3.72;0.80;;;9.60;99.90;;;;;;10345893;28;20042;-66
2023/01/15 01:51:47;;;;;;;0.73;0.50;;;9.50;99.90;;;;;;10362131;28;20525;-66
2023/01/15 01:56:49;;;;;;;4.90;0.80;;;9.50;99.90;;;;;;10358756;28;20058;-65
2023/01/15 02:01:50;;;;;;;3.70;0.80;;;9.50;99.90;;;;;;10357021;28;20498;-65
2023/01/15 02:06:51;;;;;;;1.02;0.50;;;9.50;99.90;;;;;;10350134;28;20391;-65
2023/01/15 02:11:56;;;;;;;1.55;0.60;;;9.50;99.90;;;;;;10356600;28;20017;-65
2023/01/15 02:17:01;;;;;;;3.17;0.90;;;9.50;99.90;;;;;;10357560;28;20018;-65
2023/01/15 02:22:30;;;;;;;4.07;0.73;;;9.50;99.90;;;;;;10356424;28;20200;-65
2023/01/15 02:27:31;;;;;;;4.57;0.77;;;9.50;99.90;;;;;;10351287;28;20019;-66
2023/01/15 02:32:42;;;;;;;2.65;0.80;;;9.50;99.90;;;;;;10353026;28;20395;-66
2023/01/15 02:37:48;;;;;;;4.43;0.70;;;9.50;99.90;;;;;;10348073;28;20025;-66
2023/01/15 02:42:49;;;;;;;2.03;0.60;;;9.50;99.90;;;;;;10366714;28;20033;-66
2023/01/15 02:47:53;;;;;;;2.95;0.60;;;9.50;99.90;;;;;;10365017;28;20129;-66
2023/01/15 02:53:00;;;;;;;0.88;0.50;;;9.40;99.90;;;;;;10359112;28;20048;-67
2023/01/15 02:58:04;;;;;;;1.48;0.70;;;9.40;99.90;;;;;;10366276;28;20312;-65
2023/01/15 03:03:07;;;;;;;1.70;0.73;;;9.40;99.90;;;;;;10363421;28;20036;-65
2023/01/15 03:08:09;;;;;;;3.22;0.50;;;9.40;99.90;;;;;;10357611;28;20422;-65
2023/01/15 03:13:25;;;;;;;2.20;0.68;;;9.40;99.90;;;;;;10365674;28;20041;-66
2023/01/15 03:18:30;;;;;;;3.97;0.82;;;9.40;99.90;;;;;;10357253;28;20026;-66
2023/01/15 03:23:37;;;;;;;2.97;1.02;;;9.40;99.90;;;;;;10359664;28;20022;-66
2023/01/15 03:28:39;;;;;;;1.50;0.40;;;9.40;99.90;;;;;;10364442;28;20057;-66
2023/01/15 03:33:41;;;;;;;3.22;0.80;;;9.40;99.90;;;;;;10366803;28;20025;-65
2023/01/15 03:38:45;;;;;;;7.07;1.13;;;9.40;99.90;;;;;;10351792;28;20528;-65
2023/01/15 03:43:58;;;;;;;3.95;0.68;;;9.40;99.90;;;;;;10354131;28;20085;-66
2023/01/15 03:49:14;;;;;;;3.05;0.65;;;9.40;99.90;;;;;;10343229;28;20129;-65
2023/01/15 03:54:30;;;;;;;2.25;0.88;;;9.30;99.90;;;;;;10362263;28;20121;-66
2023/01/15 03:59:39;;;;;;;2.13;0.55;;;9.30;99.90;;;;;;10356725;28;20028;-65
2023/01/15 04:04:40;;;;;;;;;;;9.30;99.90;;;;;;10363014;28;20502;-67
2023/01/15 04:09:41;;;;;;;4.15;0.50;;;9.30;99.90;;;;;;10355070;28;19912;-66
2023/01/15 04:14:42;;;;;;;2.50;0.85;;;9.30;99.90;;;;;;10362033;28;20113;-66
2023/01/15 04:19:43;;;;;;;2.88;0.50;;;9.30;99.90;;;;;;10362553;28;20030;-65
2023/01/15 04:24:43;;;;;;;1.35;0.60;;;9.30;99.90;;;;;;10356273;28;20471;-65
2023/01/15 04:29:44;;;;;;;2.72;0.60;;;9.30;99.90;;;;;;10357476;28;20662;-65
2023/01/15 04:34:45;;;;;;;4.57;0.80;;;9.30;99.90;;;;;;10362339;28;20041;-65
2023/01/15 04:39:46;;;;;;;5.60;0.77;;;9.30;99.90;;;;;;10344098;28;20018;-65
2023/01/15 04:44:47;;;;;;;2.25;0.50;;;9.30;99.90;;;;;;10350178;28;20322;-65
2023/01/15 04:49:47;;;;;;;3.95;0.70;;;9.20;99.90;;;;;;10355114;28;20056;-65
2023/01/15 04:54:48;;;;;;;2.33;0.80;;;9.70;99.90;;;;;;10356312;28;20362;-65
2023/01/15 04:59:48;;;;;;;2.83;0.73;;;9.20;99.90;;;;;;10341693;28;20170;-66
2023/01/15 05:04:49;;;;;;;3.25;0.93;;;9.30;99.90;;;;;;10354234;28;20041;-65
2023/01/15 05:09:52;;;;;;;5.70;1.00;;;9.20;99.90;;;;;;10353396;28;20063;-66
2023/01/15 05:14:52;;;;;;;3.53;0.50;;;9.20;99.90;;;;;;10356637;28;20049;-66
2023/01/15 05:19:53;;;;;;;2.88;0.70;;;9.60;99.90;;;;;;10354844;28;20029;-66
2023/01/15 05:24:54;;;;;;;4.78;0.98;;;9.20;99.90;;;;;;10352351;28;20079;-65
2023/01/15 05:29:55;;;;;;;2.40;0.50;;;9.20;99.90;;;;;;10354790;28;20036;-66
2023/01/15 05:34:55;;;;;;;4.13;0.70;;;9.20;99.90;;;;;;10358229;28;20064;-65
2023/01/15 05:39:56;;;;;;;5.35;1.00;;;9.20;99.90;;;;;;10351278;28;20026;-65
2023/01/15 05:44:57;;;;;;;1.45;0.57;;;9.20;99.90;;;;;;10350309;28;20293;-64
2023/01/15 05:49:57;;;;;;;2.92;0.80;;;9.20;99.90;;;;;;10356881;28;20512;-65
2023/01/15 05:54:58;;;;;;;1.98;0.52;;;9.10;99.90;;;;;;10356303;28;20370;-65
2023/01/15 05:59:58;;;;;;;2.55;0.90;;;9.80;99.90;;;;;;10355349;28;20022;-65
2023/01/15 06:04:59;;;;;;;3.53;0.73;;;9.10;99.90;;;;;;10357068;28;20022;-65
2023/01/15 06:10:00;;;;;;;3.30;0.90;;;9.10;99.90;;;;;;10351014;28;20088;-65
2023/01/15 06:15:01;;;;;;;3.72;0.70;;;9.10;99.90;;;;;;10358317;28;20017;-65
2023/01/15 06:20:01;;;;;;;2.15;0.63;;;9.10;99.90;;;;;;10357577;28;20540;-66
2023/01/15 06:25:02;;;;;;;3.78;0.65;;;9.10;99.90;;;;;;10355661;28;20474;-65
2023/01/15 06:30:04;;;;;;;2.75;0.63;;;9.10;99.90;;;;;;10356546;28;20018;-64
2023/01/15 06:35:06;;;;;;;4.35;1.17;;;9.10;99.90;;;;;;10359154;28;20037;-64
2023/01/15 06:40:07;;;;;;;3.30;0.77;;;9.00;99.90;;;;;;10357320;28;20029;-65
2023/01/15 06:50:31;;;;;;;3.05;0.70;;;9.00;99.90;;;;;;10360413;28;20414;-65
2023/01/15 06:55:31;;;;;;;2.00;0.40;;;9.00;99.90;;;;;;10349330;28;20029;-65
2023/01/15 07:00:32;;;;;;;3.15;0.70;;;9.00;99.90;;;;;;10353989;28;20026;-65
2023/01/15 07:05:33;;;;;;;1.20;0.50;;;9.00;99.90;;;;;;10363104;28;20038;-64
2023/01/15 07:10:34;;;;;;;3.63;0.88;;;9.00;99.90;;;;;;10363472;28;20171;-65
2023/01/15 07:15:39;;;;;;;5.55;1.42;;;9.00;99.90;;;;;;10360821;28;20050;-65
2023/01/15 07:20:39;;;;;;;3.55;0.90;;;9.00;99.90;;;;;;10356657;28;20021;-64
2023/01/15 07:25:40;;;;;;;2.95;0.80;;;8.90;99.90;;;;;;10363230;28;20034;-64
2023/01/15 07:30:41;;;;;;;2.55;0.70;;;8.90;99.90;;;;;;10367219;28;20013;-64
2023/01/15 07:35:41;;;;;;;4.72;0.77;;;8.90;99.90;;;;;;10365374;28;20101;-64
2023/01/15 07:40:42;;;;;;;1.90;0.50;;;8.90;99.90;;;;;;10363345;28;20025;-63
2023/01/15 07:51:02;;;;;;;2.90;0.47;;;8.90;99.90;;;;;;10367567;28;20171;-63
2023/01/15 07:56:03;;;;;;;3.80;0.80;;;8.90;99.90;;;;;;10367169;28;20103;-63
2023/01/15 08:01:03;;;;;;;3.70;0.65;;;8.80;99.90;;;;;;10364402;28;20014;-63
2023/01/15 08:06:04;;;;;;;4.88;0.90;;;8.90;99.90;;;;;;10363834;28;20462;-64
2023/01/15 08:16:24;;;;;;;3.92;0.90;;;8.80;99.90;;;;;;10369616;28;20018;-64
2023/01/15 08:21:25;;;;;;;2.92;0.70;;;8.80;99.90;;;;;;10366214;28;20068;-64
2023/01/15 08:26:25;;;;;;;4.10;0.93;;;8.80;99.90;;;;;;10359825;28;20038;-64
2023/01/15 08:31:26;;;;;;;2.10;0.60;;;8.80;99.90;;;;;;10358456;28;20394;-64
2023/01/15 08:36:26;;;;;;;2.75;0.50;;;8.80;99.90;;;;;;10360837;28;20121;-64
2023/01/15 08:41:27;;;;;;;2.05;0.70;;;8.80;99.90;;;;;;10362197;28;20026;-64
2023/01/15 08:46:28;;;;;;;2.00;0.90;;;8.80;99.90;;;;;;10362609;28;20489;-64
2023/01/15 08:51:28;;;;;;;2.08;0.57;;;8.80;99.90;;;;;;10369357;28;20037;-64
2023/01/15 08:56:29;;;;;;;4.63;0.60;;;8.80;99.90;;;;;;10371056;28;20025;-64
2023/01/15 09:01:29;;;;;;;3.63;0.63;;;8.80;99.90;;;;;;10373419;28;20021;-66
2023/01/15 09:06:30;;;;;;;1.13;0.70;;;8.80;99.90;;;;;;10348447;28;20676;-66
2023/01/15 09:11:31;;;;;;;0.82;0.35;;;8.70;99.90;;;;;;10361581;28;20073;-65
2023/01/15 09:16:32;;;;;;;3.95;0.52;;;8.70;99.90;;;;;;10365188;28;20152;-67
2023/01/15 09:21:33;;;;;;;1.45;0.45;;;8.70;99.90;;;;;;10371933;28;20540;-67
2023/01/15 09:26:37;;;;;;;5.43;1.00;;;8.70;99.90;;;;;;10357707;28;20044;-67
2023/01/15 09:31:38;;;;;;;2.35;0.63;;;8.70;99.90;;;;;;10346102;28;20022;-67
2023/01/15 09:36:38;;;;;;;3.17;0.98;;;8.70;99.90;;;;;;10355466;28;20025;-67
2023/01/15 09:42:08;;;;;;;1.80;0.47;;;8.70;99.90;;;;;;10360594;28;20486;-65
2023/01/15 09:47:44;;;;;;;3.17;0.60;;;8.60;99.90;;;;;;10358438;28;20056;-66
2023/01/15 09:53:09;;;;;;;2.45;0.60;;;8.60;99.90;;;;;;10316575;28;20188;-65
2023/01/15 09:58:12;;;;;;;1.95;0.60;;;9.50;99.90;;;;;;10330345;28;20033;-66
2023/01/15 10:03:31;;;;;;;1.85;0.52;;;8.60;99.90;;;;;;10347576;28;20526;-67
2023/01/15 10:09:03;;;;;;;2.03;0.65;;;8.60;99.90;;;;;;10347494;28;20545;-65
2023/01/15 10:14:13;;;;;;;3.65;1.15;;;8.60;99.90;;;;;;10348667;28;20383;-65
2023/01/15 10:19:14;;;;;;;3.60;0.57;;;8.60;99.90;;;;;;10358604;28;20018;-66
2023/01/15 10:24:24;;;;;;;6.75;0.85;;;8.60;99.90;;;;;;10362169;28;20040;-65
2023/01/15 10:29:48;;;;;;;2.58;0.55;;;8.70;99.90;;;;;;10360305;28;20034;-66
2023/01/15 10:35:27;;;;;;;4.32;0.77;;;8.70;99.90;;;;;;10378992;28;20121;-66
2023/01/15 10:40:45;;;;;;;5.00;0.70;;;8.70;99.90;;;;;;10351160;28;20075;-66
2023/01/15 10:45:49;;;;;;;5.47;0.70;;;8.70;99.90;;;;;;10357523;28;20045;-65
2023/01/15 10:50:51;;;;;;;2.70;0.60;;;8.70;99.90;;;;;;10345311;28;20064;-65
2023/01/15 10:55:57;;;;;;;4.25;0.85;;;8.70;99.90;;;;;;10349565;28;20026;-67
2023/01/15 11:01:04;;;;;;;1.60;0.90;;;8.70;99.90;;;;;;10367490;28;20060;-66
2023/01/15 11:06:11;;;;;;;2.88;0.70;;;8.70;99.90;;;;;;10346628;28;20069;-66
2023/01/15 11:11:17;;;;;;;4.75;0.85;;;8.70;99.90;;;;;;10347841;28;20014;-68
2023/01/15 11:21:43;;;;;;;1.13;0.40;;;8.70;99.90;;;;;;10367361;28;20133;-66
2023/01/15 11:26:50;;;;;;;2.95;0.68;;;8.70;99.90;;;;;;10360781;28;20035;-67
2023/01/15 11:31:50;;;;;;;1.98;0.75;;;8.70;99.90;;;;;;10353594;28;20029;-67
2023/01/15 11:37:04;;;;;;;3.03;0.60;;;8.80;99.90;;;;;;10360128;28;20027;-67
2023/01/15 11:52:58;;;;;;;2.85;0.68;;;8.80;99.90;;;;;;10358253;28;20422;-67
2023/01/15 11:58:00;;;;;;;1.10;0.40;;;8.90;99.90;;;;;;10367839;28;20018;-68
2023/01/15 12:03:15;;;;;;;3.15;0.60;;;8.90;99.90;;;;;;10351655;28;20033;-68
2023/01/15 12:08:53;;;;;;;8.93;0.90;;;8.90;99.90;;;;;;10342077;28;20025;-66
2023/01/15 12:14:29;;;;;;;6.47;1.27;;;8.90;99.90;;;;;;10341123;28;20022;-65
2023/01/15 12:19:33;;;;;;;3.25;1.23;;;8.90;99.90;;;;;;10760472;23;20515;-68
2023/01/15 12:24:44;;;;;;;4.35;0.77;;;8.90;99.90;;;;;;10348105;28;20026;-68
2023/01/15 12:30:01;;;;;;;3.92;0.60;;;8.90;99.90;;;;;;10342896;28;20061;-67
2023/01/15 12:35:30;;;;;;;3.80;0.82;;;8.90;99.90;;;;;;10356302;28;20021;-65
2023/01/15 12:40:46;;;;;;;2.28;0.65;;;8.90;99.90;;;;;;10367316;28;20061;-68
2023/01/15 12:45:51;;;;;;;4.93;1.42;;;9.00;99.90;;;;;;10366517;28;20124;-69
2023/01/15 12:50:55;;;;;;;4.05;0.85;;;9.00;99.90;;;;;;10368741;28;20018;-65
2023/01/15 12:56:06;;;;;;;5.20;0.82;;;8.90;99.90;;;;;;10361556;28;20057;-65
2023/01/15 13:01:14;;;;;;;3.90;0.65;;;8.90;99.90;;;;;;10356999;28;20021;-68
2023/01/15 13:06:16;;;;;;;2.95;0.68;;;8.90;99.90;;;;;;10363123;28;20041;-66
2023/01/15 13:11:17;;;;;;;3.78;0.70;;;8.90;99.90;;;;;;10361165;28;20033;-66
2023/01/15 13:16:24;;;;;;;4.88;0.80;;;8.90;99.90;;;;;;10364421;28;20030;-66
2023/01/15 13:21:30;;;;;;;3.65;0.60;;;9.00;99.90;;;;;;10356970;28;20117;-71
2023/01/15 13:26:56;;;;;;;4.90;1.25;;;8.90;99.90;;;;;;10364083;28;20041;-67
2023/01/15 13:32:19;;;;;;;1.77;0.57;;;8.90;99.90;;;;;;10368910;28;20113;-67
2023/01/15 13:37:19;;;;;;;3.38;0.85;;;8.90;99.90;;;;;;10369803;28;20025;-65
2023/01/15 13:42:32;;;;;;;1.88;0.73;;;8.90;99.90;;;;;;10366525;28;20029;-66
2023/01/15 13:47:36;;;;;;;4.03;0.93;;;8.90;99.90;;;;;;10361266;28;20038;-67
2023/01/15 13:52:37;;;;;;;3.33;0.90;;;8.90;99.90;;;;;;10363258;28;20061;-66
2023/01/15 13:57:40;;;;;;;3.38;0.70;;;8.90;99.90;;;;;;10369969;28;20552;-66
2023/01/15 14:02:51;;;;;;;4.43;0.80;;;8.90;99.90;;;;;;10357839;28;20101;-66
2023/01/15 14:07:52;;;;;;;3.00;0.65;;;8.90;99.90;;;;;;10362911;28;20125;-67
2023/01/15 14:13:14;;;;;;;3.95;0.68;;;8.90;99.90;;;;;;10363599;28;20018;-68
2023/01/15 14:18:39;;;;;;;3.55;0.82;;;8.80;99.90;;;;;;10368058;28;20498;-67
2023/01/15 14:23:52;;;;;;;1.98;0.38;;;8.80;99.90;;;;;;10363628;28;20032;-68
2023/01/15 14:29:14;;;;;;;5.40;0.70;;;8.80;99.90;;;;;;10360842;28;20033;-66
2023/01/15 14:34:15;;;;;;;3.65;0.80;;;8.80;99.90;;;;;;10369834;28;20022;-66
2023/01/15 14:39:32;;;;;;;2.38;0.50;;;8.70;99.90;;;;;;10366826;28;20398;-69
2023/01/15 14:44:33;;;;;;;3.28;0.52;;;8.70;99.90;;;;;;10368139;28;20407;-68
2023/01/15 14:49:48;;;;;;;1.73;0.40;;;8.70;99.90;;;;;;10375881;28;20084;-67
2023/01/15 14:54:51;;;;;;;4.57;0.70;;;8.70;99.90;;;;;;10369747;28;20472;-68
2023/01/15 14:59:59;;;;;;;2.92;0.75;;;8.70;99.90;;;;;;10368336;28;20022;-67
2023/01/15 15:05:01;;;;;;;2.08;0.65;;;8.70;99.90;;;;;;10370420;28;20026;-67
2023/01/15 15:10:16;;;;;;;3.22;0.98;;;8.70;99.90;;;;;;10355008;28;20442;-67
2023/01/15 15:15:43;;;;;;;1.67;0.47;;;8.70;99.90;;;;;;10363738;28;20037;-68
2023/01/15 15:20:52;;;;;;;3.15;0.50;;;8.70;99.90;;;;;;10358202;28;20034;-67
2023/01/15 15:25:59;;;;;;;1.65;0.43;;;8.70;99.90;;;;;;10362287;28;20025;-67
2023/01/15 15:31:00;;;;;;;0.85;0.35;;;8.70;99.90;;;;;;10380369;28;20026;-68
2023/01/15 15:36:01;;;;;;;1.65;0.35;;;8.70;99.90;;;;;;10377138;28;20026;-67
2023/01/15 15:41:05;;;;;;;3.55;0.50;;;8.70;99.90;;;;;;10376283;28;20018;-67
2023/01/15 15:51:48;;;;;;;1.42;0.38;;;8.70;99.90;;;;;;10367253;28;20029;-67
2023/01/15 15:56:54;;;;;;;2.25;0.75;;;8.70;99.90;;;;;;10357416;28;20034;-67
2023/01/15 16:01:57;;;;;;;2.30;0.40;;;8.70;99.90;;;;;;10349944;28;20301;-67
2023/01/15 16:06:58;;;;;;;2.25;0.40;;;8.70;99.90;;;;;;10354445;28;20068;-68
2023/01/15 16:12:05;;;;;;;3.90;0.45;;;8.70;99.90;;;;;;10336968;28;20025;-68
2023/01/15 16:17:12;;;;;;;1.30;0.50;;;8.90;99.90;;;;;;10360365;28;20033;-68
2023/01/15 16:22:16;;;;;;;1.67;0.40;;;8.60;99.90;;;;;;10356313;28;20030;-65
2023/01/15 16:27:20;;;;;;;0.75;0.30;;;8.60;99.90;;;;;;10357466;28;20056;-67
2023/01/15 16:32:29;;;;;;;1.70;0.40;;;8.60;99.90;;;;;;10359957;28;20048;-71
2023/01/15 16:37:30;;;;;;;1.58;0.30;;;8.60;99.90;;;;;;10349960;28;20076;-67
2023/01/15 16:42:41;;;;;;;6.93;0.93;;;8.60;99.90;;;;;;10353090;28;20026;-69
2023/01/15 16:48:07;;;;;;;2.60;0.60;;;8.60;99.90;;;;;;10362823;28;20153;-68
2023/01/15 16:53:33;;;;;;;1.77;0.50;;;8.60;99.90;;;;;;10341218;28;20022;-70
2023/01/15 16:58:40;;;;;;;2.55;0.60;;;8.50;99.90;;;;;;10345783;28;20030;-71
2023/01/15 17:03:41;;;;;;;2.33;0.82;;;8.50;99.90;;;;;;10354319;28;20075;-66
2023/01/15 17:08:48;;;;;;;6.22;1.05;;;8.50;99.90;;;;;;10349979;28;20037;-67
2023/01/15 17:13:49;;;;;;;4.97;0.88;;;8.50;99.90;;;;;;10355233;28;20026;-66
2023/01/15 17:18:50;;;;;;;2.63;0.70;;;8.50;99.90;;;;;;10354832;28;20038;-67
2023/01/15 17:23:50;;;;;;;6.43;1.30;;;8.50;99.90;;;;;;10357529;28;20029;-67
2023/01/15 17:28:51;;;;;;;3.33;0.70;;;8.50;99.90;;;;;;10350392;28;20037;-67
2023/01/15 17:33:52;;;;;;;2.85;0.77;;;8.50;99.90;;;;;;10363770;28;20026;-67
2023/01/15 17:38:53;;;;;;;1.92;0.60;;;8.60;99.90;;;;;;10358500;28;20430;-66
2023/01/15 17:43:54;;;;;;;3.97;0.70;;;8.60;99.90;;;;;;10341222;28;20034;-66
2023/01/15 17:48:55;;;;;;;1.90;0.50;;;8.60;99.90;;;;;;10359633;28;20442;-66
2023/01/15 17:53:55;;;;;;;1.40;0.60;;;8.60;99.90;;;;;;10340315;28;20014;-66
2023/01/15 18:09:42;;;;;;;4.80;0.80;;;8.70;99.90;;;;;;10359412;28;20070;-66
2023/01/15 18:14:42;;;;;;;3.47;0.82;;;8.70;99.90;;;;;;10355479;28;20033;-68
2023/01/15 18:19:43;;;;;;;2.55;0.90;;;8.70;99.90;;;;;;10358633;28;20033;-69
2023/01/15 18:24:43;;;;;;;2.08;0.73;;;8.70;99.90;;;;;;10356071;28;20393;-68
2023/01/15 18:29:44;;;;;;;2.15;0.90;;;8.70;99.90;;;;;;10353912;28;20038;-67
2023/01/15 18:34:45;;;;;;;5.63;1.10;;;8.60;99.90;;;;;;10347139;28;20022;-67
2023/01/15 18:39:45;;;;;;;3.88;1.10;;;8.60;99.90;;;;;;10353516;28;20113;-67
2023/01/15 18:50:05;;;;;;;2.72;1.08;;;8.60;99.90;;;;;;10348278;28;20506;-69
2023/01/15 18:55:06;;;;;;;5.15;1.30;;;8.60;99.90;;;;;;10332667;28;20120;-69
2023/01/15 19:00:08;;;;;;;3.17;1.13;;;8.60;99.90;;;;;;10362835;28;20029;-69
2023/01/15 19:05:10;;;;;;;3.47;1.10;;;8.60;99.90;;;;;;10364613;28;20018;-69
2023/01/15 19:10:13;;;;;;;2.95;1.20;;;8.60;99.90;;;;;;10366080;28;20085;-69
2023/01/15 19:20:38;;;;;;;6.60;1.48;;;8.60;99.90;;;;;;10368179;28;20475;-69
2023/01/15 19:25:44;;;;;;;2.30;1.30;;;8.60;99.90;;;;;;10369557;28;20021;-69
2023/01/15 19:36:06;;;;;;;3.22;1.30;;;8.50;99.90;;;;;;10362350;28;20034;-69
2023/01/15 19:57:10;;;;;;;3.20;1.67;;;8.70;99.90;;;;;;10358335;28;20031;-70
2023/01/15 20:02:11;;;;;;;2.88;1.48;;;9.40;99.90;;;;;;10368617;28;20026;-70
2023/01/15 20:07:12;;;;;;;3.03;1.40;;;8.50;99.90;;;;;;10370798;28;20576;-70
2023/01/15 20:17:32;;;;;;;3.47;1.95;;;8.50;99.90;;;;;;10363116;28;20310;-70
2023/01/15 20:22:33;;;;;;;2.95;1.55;;;9.30;99.90;;;;;;10350154;28;20026;-69
2023/01/15 20:27:38;;;;;;;6.03;1.95;;;8.50;99.90;;;;;;10352345;28;20453;-70
2023/01/15 20:32:41;;;;;;;6.05;2.22;;;9.30;99.90;;;;;;10341983;28;20029;-70
2023/01/15 20:37:42;;;;;;;5.18;2.08;;;9.20;99.90;;;;;;10358980;28;20072;-70
2023/01/15 20:53:12;;;;;;;4.15;2.20;;;8.50;99.90;;;;;;10342610;28;20026;-70
2023/01/15 20:58:13;;;;;;;5.72;1.85;;;8.50;99.90;;;;;;10360530;28;20038;-70
2023/01/15 21:03:13;;;;;;;3.58;2.03;;;8.50;99.90;;;;;;10350642;28;20026;-70
2023/01/15 21:08:14;;;;;;;3.05;2.03;;;9.40;99.90;;;;;;10354516;28;20073;-70
2023/01/15 21:13:16;;;;;;;3.30;2.00;;;8.50;99.90;;;;;;10356486;28;20104;-71
2023/01/15 21:18:16;;;;;;;4.60;2.35;;;8.50;99.90;;;;;;10351819;28;20546;-70
2023/01/15 21:23:17;;;;;;;3.92;1.83;;;8.50;99.90;;;;;;10341068;28;20053;-70
2023/01/15 21:28:18;;;;;;;4.20;1.90;;;8.50;99.90;;;;;;10365231;28;20579;-70
2023/01/15 21:33:18;;;;;;;2.72;1.70;;;9.40;99.90;;;;;;10360508;28;20490;-71
2023/01/15 21:38:19;;;;;;;3.17;1.98;;;9.20;99.90;;;;;;10351473;28;20107;-70
2023/01/15 21:48:39;;;;;;;2.35;1.48;;;8.50;99.90;;;;;;10350851;28;20521;-70
2023/01/15 21:53:39;;;;;;;2.75;1.80;;;8.50;99.90;;;;;;10344080;28;20161;-70
2023/01/15 21:58:40;;;;;;;2.95;1.60;;;8.50;99.90;;;;;;10341122;28;20498;-71
2023/01/15 22:03:41;;;;;;;3.28;1.60;;;9.40;99.90;;;;;;10348376;28;20061;-71
2023/01/15 22:08:41;;;;;;;3.58;1.50;;;9.20;99.90;;;;;;10352800;28;20482;-71
2023/01/15 22:13:42;;;;;;;2.85;1.63;;;8.40;99.90;;;;;;10348876;28;20032;-70
2023/01/15 22:18:44;;;;;;;2.47;1.48;;;9.10;99.90;;;;;;10352351;28;20165;-70
2023/01/15 22:23:46;;;;;;;3.38;1.60;;;8.40;99.90;;;;;;10355990;28;20107;-69
2023/01/15 22:28:47;;;;;;;2.08;1.38;;;8.40;99.90;;;;;;10350652;28;20317;-70
2023/01/15 22:33:47;;;;;;;3.58;1.20;;;8.40;99.90;;;;;;10352050;28;20684;-69
2023/01/15 22:38:50;;;;;;;2.53;1.30;;;8.40;99.90;;;;;;10350882;28;20027;-68
2023/01/15 22:43:51;;;;;;;3.00;1.17;;;8.40;99.90;;;;;;10343681;28;20490;-68
2023/01/15 22:48:52;;;;;;;4.40;2.05;;;8.30;99.90;;;;;;10364245;28;20042;-69
2023/01/15 22:53:53;;;;;;;2.53;1.20;;;8.30;99.90;;;;;;10356101;28;20018;-69
2023/01/15 22:58:54;;;;;;;2.22;1.10;;;8.30;99.90;;;;;;10350040;28;20044;-68
2023/01/15 23:03:55;;;;;;;1.90;1.02;;;8.30;99.90;;;;;;10351759;28;20014;-68
2023/01/15 23:09:00;;;;;;;1.90;1.30;;;8.30;99.90;;;;;;10364482;28;20033;-68
2023/01/15 23:14:01;;;;;;;4.75;1.52;;;8.30;99.90;;;;;;10370048;28;20029;-69
2023/01/15 23:19:02;;;;;;;2.90;1.40;;;8.30;99.90;;;;;;10364075;28;20041;-68
2023/01/15 23:24:03;;;;;;;1.60;1.10;;;8.30;99.90;;;;;;10362777;28;20026;-70
2023/01/15 23:29:04;;;;;;;2.38;1.02;;;8.30;99.90;;;;;;10359123;28;20026;-69
2023/01/15 23:34:05;;;;;;;1.33;1.00;;;8.30;99.90;;;;;;10364384;28;20026;-68
2023/01/15 23:39:05;;;;;;;2.03;1.17;;;8.20;99.90;;;;;;10337104;28;20022;-69
2023/01/15 23:49:32;;;;;;;3.47;1.00;;;8.20;99.90;;;;;;10347132;28;20029;-69
2023/01/15 23:54:33;;;;;;;2.15;1.33;;;8.20;99.90;;;;;;10354178;28;20037;-69
2023/01/15 23:59:33;;;;;;;1.67;1.00;;;8.20;99.90;;;;;;10347908;28;20022;-70
